TGW206 WSSS-WIPP
Flight info
| Callsign | TGW206 |
|---|---|
| Flight time | 0h 56m |
| Altitude | 22000 |
| Route | ANITO B470 PKP W23 TODAK |
| Aircraft | A20N/M-L/C |
Departure
| Time | 2026-04-25 10:12 |
|---|---|
| Airport | Singapore Changi Airport (WSSS) |
Arrival
| Time | 2026-04-25 11:08 |
|---|---|
| Airport | Sultan Mahmud Badaruddin II Airport (WIPP) |
| Time | Latitude | Longitude | Altitude | Speed | Heading |
|---|---|---|---|---|---|
| 2026-04-25 09:49 | 1.36063 | 103.99222 | 28 ft | 0 kts | 290° |
| 2026-04-25 10:00 | 1.36060 | 103.99229 | 28 ft | 2 kts | 288° |
| 2026-04-25 10:01 | 1.36055 | 103.99244 | 28 ft | 2 kts | 289° |
| 2026-04-25 10:01 | 1.36050 | 103.99260 | 28 ft | 2 kts | 288° |
| 2026-04-25 10:01 | 1.36045 | 103.99276 | 28 ft | 2 kts | 287° |
| 2026-04-25 10:01 | 1.36040 | 103.99291 | 28 ft | 2 kts | 285° |
| 2026-04-25 10:02 | 1.36036 | 103.99307 | 28 ft | 2 kts | 280° |
| 2026-04-25 10:02 | 1.36035 | 103.99324 | 28 ft | 2 kts | 259° |
| 2026-04-25 10:02 | 1.36042 | 103.99335 | 28 ft | 1 kts | 208° |
| 2026-04-25 10:02 | 1.36044 | 103.99336 | 28 ft | 0 kts | 205° |
| 2026-04-25 10:04 | 1.36031 | 103.99330 | 28 ft | 6 kts | 203° |
| 2026-04-25 10:04 | 1.35966 | 103.99307 | 28 ft | 11 kts | 185° |
| 2026-04-25 10:04 | 1.35915 | 103.99350 | 28 ft | 10 kts | 115° |
| 2026-04-25 10:04 | 1.35882 | 103.99426 | 28 ft | 14 kts | 111° |
| 2026-04-25 10:05 | 1.35841 | 103.99516 | 28 ft | 14 kts | 130° |
| 2026-04-25 10:05 | 1.35762 | 103.99518 | 29 ft | 12 kts | 202° |
| 2026-04-25 10:05 | 1.35684 | 103.99486 | 29 ft | 15 kts | 201° |
| 2026-04-25 10:05 | 1.35578 | 103.99442 | 30 ft | 16 kts | 202° |
| 2026-04-25 10:06 | 1.35476 | 103.99400 | 29 ft | 16 kts | 202° |
| 2026-04-25 10:06 | 1.35376 | 103.99358 | 29 ft | 15 kts | 202° |
| 2026-04-25 10:06 | 1.35283 | 103.99319 | 29 ft | 14 kts | 202° |
| 2026-04-25 10:06 | 1.35194 | 103.99281 | 29 ft | 14 kts | 204° |
| 2026-04-25 10:07 | 1.35100 | 103.99239 | 29 ft | 17 kts | 203° |
| 2026-04-25 10:07 | 1.34975 | 103.99187 | 29 ft | 21 kts | 203° |
| 2026-04-25 10:07 | 1.34844 | 103.99131 | 29 ft | 20 kts | 203° |
| 2026-04-25 10:07 | 1.34717 | 103.99078 | 30 ft | 19 kts | 202° |
| 2026-04-25 10:08 | 1.34598 | 103.99028 | 30 ft | 18 kts | 202° |
| 2026-04-25 10:08 | 1.34484 | 103.98980 | 30 ft | 18 kts | 202° |
| 2026-04-25 10:08 | 1.34373 | 103.98933 | 30 ft | 17 kts | 204° |
| 2026-04-25 10:08 | 1.34268 | 103.98888 | 30 ft | 16 kts | 203° |
| 2026-04-25 10:09 | 1.34167 | 103.98845 | 30 ft | 15 kts | 202° |
| 2026-04-25 10:09 | 1.34056 | 103.98799 | 29 ft | 18 kts | 203° |
| 2026-04-25 10:09 | 1.33945 | 103.98751 | 29 ft | 17 kts | 203° |
| 2026-04-25 10:09 | 1.33838 | 103.98708 | 29 ft | 16 kts | 202° |
| 2026-04-25 10:10 | 1.33735 | 103.98664 | 29 ft | 16 kts | 205° |
| 2026-04-25 10:10 | 1.33633 | 103.98629 | 29 ft | 15 kts | 175° |
| 2026-04-25 10:10 | 1.33570 | 103.98695 | 30 ft | 13 kts | 111° |
| 2026-04-25 10:10 | 1.33565 | 103.98773 | 30 ft | 11 kts | 57° |
| 2026-04-25 10:11 | 1.33639 | 103.98818 | 30 ft | 14 kts | 23° |
| 2026-04-25 10:11 | 1.33850 | 103.98908 | 32 ft | 62 kts | 23° |
| 2026-04-25 10:11 | 1.34428 | 103.99151 | 35 ft | 116 kts | 23° |
| 2026-04-25 10:11 | 1.35308 | 103.99524 | 34 ft | 156 kts | 24° |
| 2026-04-25 10:12 | 1.36364 | 103.99944 | 306 ft | 161 kts | 26° |
| 2026-04-25 10:12 | 1.37366 | 104.00392 | 810 ft | 156 kts | 25° |
| 2026-04-25 10:12 | 1.39434 | 104.01300 | 1506 ft | 176 kts | 25° |
| 2026-04-25 10:13 | 1.40614 | 104.01790 | 1754 ft | 194 kts | 24° |
| 2026-04-25 10:13 | 1.41943 | 104.02344 | 1956 ft | 227 kts | 24° |
| 2026-04-25 10:13 | 1.43480 | 104.02988 | 2383 ft | 248 kts | 24° |
| 2026-04-25 10:13 | 1.45091 | 104.03671 | 3117 ft | 253 kts | 25° |
| 2026-04-25 10:14 | 1.46591 | 104.04613 | 3859 ft | 258 kts | 43° |
| 2026-04-25 10:14 | 1.47614 | 104.06087 | 4580 ft | 263 kts | 69° |
| 2026-04-25 10:14 | 1.47861 | 104.07897 | 5332 ft | 267 kts | 95° |
| 2026-04-25 10:14 | 1.47343 | 104.09691 | 6100 ft | 272 kts | 111° |
| 2026-04-25 10:15 | 1.46551 | 104.11418 | 6832 ft | 275 kts | 114° |
| 2026-04-25 10:15 | 1.45717 | 104.13142 | 7607 ft | 277 kts | 114° |
| 2026-04-25 10:15 | 1.44879 | 104.14885 | 8329 ft | 280 kts | 114° |
| 2026-04-25 10:15 | 1.44042 | 104.16649 | 8815 ft | 282 kts | 114° |
| 2026-04-25 10:16 | 1.43208 | 104.18426 | 8986 ft | 283 kts | 113° |
| 2026-04-25 10:16 | 1.42376 | 104.20213 | 9004 ft | 284 kts | 113° |
| 2026-04-25 10:16 | 1.41542 | 104.22010 | 9009 ft | 285 kts | 113° |
| 2026-04-25 10:16 | 1.40709 | 104.23806 | 9009 ft | 285 kts | 113° |
| 2026-04-25 10:17 | 1.39876 | 104.25606 | 9015 ft | 286 kts | 113° |
| 2026-04-25 10:17 | 1.39041 | 104.27409 | 9015 ft | 286 kts | 113° |
| 2026-04-25 10:17 | 1.38208 | 104.29211 | 9016 ft | 286 kts | 113° |
| 2026-04-25 10:17 | 1.37373 | 104.31013 | 9015 ft | 286 kts | 113° |
| 2026-04-25 10:18 | 1.36539 | 104.32817 | 9014 ft | 286 kts | 113° |
| 2026-04-25 10:18 | 1.35705 | 104.34619 | 9013 ft | 286 kts | 113° |
| 2026-04-25 10:18 | 1.34871 | 104.36421 | 9019 ft | 286 kts | 113° |
| 2026-04-25 10:18 | 1.34033 | 104.38218 | 9021 ft | 286 kts | 115° |
| 2026-04-25 10:19 | 1.32908 | 104.39855 | 9017 ft | 288 kts | 134° |
| 2026-04-25 10:19 | 1.31209 | 104.40913 | 9025 ft | 292 kts | 157° |
| 2026-04-25 10:19 | 1.29263 | 104.41516 | 9064 ft | 295 kts | 162° |
| 2026-04-25 10:19 | 1.27272 | 104.42058 | 9527 ft | 299 kts | 162° |
| 2026-04-25 10:20 | 1.25262 | 104.42598 | 10263 ft | 301 kts | 162° |
| 2026-04-25 10:20 | 1.23188 | 104.43159 | 10618 ft | 318 kts | 162° |
| 2026-04-25 10:20 | 1.20988 | 104.43756 | 10861 ft | 337 kts | 162° |
| 2026-04-25 10:20 | 1.18663 | 104.44387 | 11096 ft | 354 kts | 162° |
| 2026-04-25 10:21 | 1.16232 | 104.45046 | 11323 ft | 370 kts | 162° |
| 2026-04-25 10:21 | 1.13710 | 104.45730 | 11679 ft | 379 kts | 162° |
| 2026-04-25 10:21 | 1.11151 | 104.46422 | 12169 ft | 383 kts | 162° |
| 2026-04-25 10:21 | 1.08562 | 104.47123 | 12691 ft | 387 kts | 162° |
| 2026-04-25 10:22 | 1.05955 | 104.47829 | 13221 ft | 390 kts | 162° |
| 2026-04-25 10:22 | 1.04214 | 104.48301 | 13572 ft | 393 kts | 162° |
| 2026-04-25 10:22 | 1.00663 | 104.49264 | 14208 ft | 397 kts | 162° |
| 2026-04-25 10:22 | 0.97995 | 104.49988 | 14717 ft | 399 kts | 162° |
| 2026-04-25 10:23 | 0.95304 | 104.50717 | 15215 ft | 402 kts | 162° |
| 2026-04-25 10:23 | 0.92601 | 104.51451 | 15720 ft | 404 kts | 162° |
| 2026-04-25 10:23 | 0.89880 | 104.52189 | 16214 ft | 407 kts | 162° |
| 2026-04-25 10:23 | 0.87140 | 104.52932 | 16711 ft | 409 kts | 162° |
| 2026-04-25 10:24 | 0.84385 | 104.53679 | 17184 ft | 412 kts | 162° |
| 2026-04-25 10:24 | 0.81648 | 104.54422 | 17637 ft | 414 kts | 162° |
| 2026-04-25 10:24 | 0.78854 | 104.55180 | 18087 ft | 417 kts | 162° |
| 2026-04-25 10:24 | 0.76050 | 104.55940 | 18448 ft | 419 kts | 162° |
| 2026-04-25 10:25 | 0.73220 | 104.56708 | 18794 ft | 422 kts | 162° |
| 2026-04-25 10:25 | 0.70376 | 104.57480 | 19109 ft | 425 kts | 163° |
| 2026-04-25 10:25 | 0.67513 | 104.58256 | 19441 ft | 428 kts | 163° |
| 2026-04-25 10:25 | 0.64644 | 104.59069 | 19763 ft | 430 kts | 162° |
| 2026-04-25 10:26 | 0.61769 | 104.59919 | 20073 ft | 432 kts | 161° |
| 2026-04-25 10:26 | 0.58882 | 104.60780 | 20389 ft | 434 kts | 161° |
| 2026-04-25 10:26 | 0.55983 | 104.61645 | 20692 ft | 437 kts | 161° |
| 2026-04-25 10:26 | 0.53062 | 104.62515 | 21008 ft | 439 kts | 161° |
| 2026-04-25 10:27 | 0.50127 | 104.63389 | 21328 ft | 441 kts | 162° |
| 2026-04-25 10:27 | 0.47176 | 104.64267 | 21649 ft | 444 kts | 162° |
| 2026-04-25 10:27 | 0.44210 | 104.65146 | 21963 ft | 446 kts | 162° |
| 2026-04-25 10:27 | 0.41227 | 104.66029 | 22290 ft | 449 kts | 162° |
| 2026-04-25 10:28 | 0.38226 | 104.66918 | 22622 ft | 451 kts | 162° |
| 2026-04-25 10:28 | 0.35212 | 104.67810 | 22841 ft | 454 kts | 162° |
| 2026-04-25 10:28 | 0.32145 | 104.68719 | 22870 ft | 464 kts | 162° |
| 2026-04-25 10:28 | 0.29020 | 104.69645 | 22868 ft | 473 kts | 162° |
| 2026-04-25 10:29 | 0.25834 | 104.70588 | 22868 ft | 482 kts | 162° |
| 2026-04-25 10:29 | 0.22590 | 104.71549 | 22868 ft | 490 kts | 162° |
| 2026-04-25 10:29 | 0.19341 | 104.72511 | 22868 ft | 495 kts | 162° |
| 2026-04-25 10:29 | 0.16034 | 104.73490 | 22870 ft | 496 kts | 162° |
| 2026-04-25 10:30 | 0.12729 | 104.74470 | 22872 ft | 496 kts | 162° |
| 2026-04-25 10:30 | 0.10490 | 104.75134 | 22873 ft | 496 kts | 162° |
| 2026-04-25 10:30 | 0.06109 | 104.76434 | 22873 ft | 496 kts | 162° |
| 2026-04-25 10:30 | 0.02811 | 104.77413 | 22873 ft | 496 kts | 162° |
| 2026-04-25 10:31 | -0.00505 | 104.78398 | 22873 ft | 496 kts | 162° |
| 2026-04-25 10:31 | -0.03814 | 104.79381 | 22872 ft | 496 kts | 162° |
| 2026-04-25 10:31 | -0.07121 | 104.80363 | 22872 ft | 496 kts | 162° |
| 2026-04-25 10:31 | -0.10435 | 104.81347 | 22873 ft | 496 kts | 162° |
| 2026-04-25 10:32 | -0.13741 | 104.82329 | 22872 ft | 496 kts | 162° |
| 2026-04-25 10:32 | -0.17053 | 104.83312 | 22876 ft | 496 kts | 162° |
| 2026-04-25 10:32 | -0.20365 | 104.84296 | 22876 ft | 496 kts | 162° |
| 2026-04-25 10:32 | -0.23680 | 104.85281 | 22876 ft | 496 kts | 162° |
| 2026-04-25 10:33 | -0.26966 | 104.86326 | 22873 ft | 496 kts | 158° |
| 2026-04-25 10:33 | -0.30062 | 104.87828 | 22879 ft | 494 kts | 149° |
| 2026-04-25 10:33 | -0.32997 | 104.89603 | 22876 ft | 493 kts | 146° |
| 2026-04-25 10:33 | -0.35853 | 104.91506 | 22875 ft | 493 kts | 144° |
| 2026-04-25 10:34 | -0.38668 | 104.93461 | 22870 ft | 493 kts | 144° |
| 2026-04-25 10:34 | -0.41476 | 104.95430 | 22872 ft | 493 kts | 143° |
| 2026-04-25 10:34 | -0.44284 | 104.97388 | 22875 ft | 492 kts | 144° |
| 2026-04-25 10:34 | -0.47101 | 104.99333 | 22876 ft | 492 kts | 144° |
| 2026-04-25 10:35 | -0.49928 | 105.01268 | 22876 ft | 492 kts | 144° |
| 2026-04-25 10:35 | -0.52758 | 105.03191 | 22876 ft | 492 kts | 144° |
| 2026-04-25 10:35 | -0.55596 | 105.05112 | 22875 ft | 492 kts | 144° |
| 2026-04-25 10:35 | -0.58431 | 105.07029 | 22875 ft | 492 kts | 144° |
| 2026-04-25 10:36 | -0.61268 | 105.08946 | 22872 ft | 492 kts | 144° |
| 2026-04-25 10:36 | -0.64107 | 105.10865 | 22873 ft | 492 kts | 144° |
| 2026-04-25 10:36 | -0.66943 | 105.12782 | 22873 ft | 492 kts | 144° |
| 2026-04-25 10:36 | -0.69780 | 105.14701 | 22873 ft | 492 kts | 144° |
| 2026-04-25 10:37 | -0.72616 | 105.16620 | 22872 ft | 492 kts | 144° |
| 2026-04-25 10:37 | -0.74491 | 105.17889 | 22875 ft | 492 kts | 144° |
| 2026-04-25 10:37 | -0.78293 | 105.20462 | 22875 ft | 493 kts | 144° |
| 2026-04-25 10:37 | -0.80173 | 105.21734 | 22875 ft | 493 kts | 144° |
| 2026-04-25 10:38 | -0.83010 | 105.23654 | 22876 ft | 493 kts | 144° |
| 2026-04-25 10:38 | -0.85844 | 105.25572 | 22876 ft | 493 kts | 144° |
| 2026-04-25 10:38 | -0.88682 | 105.27493 | 22876 ft | 493 kts | 144° |
| 2026-04-25 10:38 | -0.91519 | 105.29412 | 22875 ft | 493 kts | 144° |
| 2026-04-25 10:39 | -0.94357 | 105.31333 | 22876 ft | 493 kts | 144° |
| 2026-04-25 10:39 | -0.97195 | 105.33254 | 22876 ft | 493 kts | 144° |
| 2026-04-25 10:39 | -1.00029 | 105.35172 | 22876 ft | 493 kts | 144° |
| 2026-04-25 10:39 | -1.02866 | 105.37093 | 22876 ft | 493 kts | 144° |
| 2026-04-25 10:40 | -1.05710 | 105.39018 | 22878 ft | 493 kts | 144° |
| 2026-04-25 10:40 | -1.08546 | 105.40937 | 22878 ft | 493 kts | 144° |
| 2026-04-25 10:40 | -1.11384 | 105.42859 | 22880 ft | 493 kts | 144° |
| 2026-04-25 10:40 | -1.14226 | 105.44782 | 22878 ft | 493 kts | 144° |
| 2026-04-25 10:41 | -1.17066 | 105.46705 | 22878 ft | 493 kts | 144° |
| 2026-04-25 10:41 | -1.19904 | 105.48625 | 22878 ft | 493 kts | 144° |
| 2026-04-25 10:41 | -1.22740 | 105.50545 | 22878 ft | 493 kts | 144° |
| 2026-04-25 10:41 | -1.25581 | 105.52468 | 22878 ft | 493 kts | 144° |
| 2026-04-25 10:42 | -1.28379 | 105.54363 | 22878 ft | 493 kts | 144° |
| 2026-04-25 10:42 | -1.31216 | 105.56283 | 22878 ft | 493 kts | 144° |
| 2026-04-25 10:42 | -1.34055 | 105.58205 | 22878 ft | 493 kts | 144° |
| 2026-04-25 10:42 | -1.36891 | 105.60125 | 22878 ft | 493 kts | 144° |
| 2026-04-25 10:43 | -1.39729 | 105.62047 | 22878 ft | 493 kts | 144° |
| 2026-04-25 10:43 | -1.42568 | 105.63968 | 22878 ft | 493 kts | 144° |
| 2026-04-25 10:43 | -1.45403 | 105.65888 | 22878 ft | 493 kts | 144° |
| 2026-04-25 10:43 | -1.48242 | 105.67811 | 22876 ft | 493 kts | 144° |
| 2026-04-25 10:44 | -1.51073 | 105.69728 | 22880 ft | 491 kts | 144° |
| 2026-04-25 10:44 | -1.53901 | 105.71642 | 22881 ft | 491 kts | 144° |
| 2026-04-25 10:44 | -1.56725 | 105.73555 | 22881 ft | 490 kts | 144° |
| 2026-04-25 10:44 | -1.59556 | 105.75472 | 22881 ft | 490 kts | 144° |
| 2026-04-25 10:45 | -1.62378 | 105.77383 | 22881 ft | 490 kts | 144° |
| 2026-04-25 10:45 | -1.65203 | 105.79296 | 22878 ft | 490 kts | 144° |
| 2026-04-25 10:45 | -1.68025 | 105.81208 | 22878 ft | 490 kts | 144° |
| 2026-04-25 10:45 | -1.70849 | 105.83121 | 22878 ft | 490 kts | 144° |
| 2026-04-25 10:46 | -1.73676 | 105.85036 | 22878 ft | 490 kts | 144° |
| 2026-04-25 10:46 | -1.76501 | 105.86949 | 22878 ft | 490 kts | 144° |
| 2026-04-25 10:46 | -1.79322 | 105.88859 | 22878 ft | 490 kts | 144° |
| 2026-04-25 10:46 | -1.82151 | 105.90776 | 22878 ft | 490 kts | 144° |
| 2026-04-25 10:47 | -1.84974 | 105.92688 | 22878 ft | 490 kts | 144° |
| 2026-04-25 10:47 | -1.87798 | 105.94601 | 22878 ft | 491 kts | 144° |
| 2026-04-25 10:47 | -1.90626 | 105.96517 | 22878 ft | 491 kts | 144° |
| 2026-04-25 10:47 | -1.93453 | 105.98432 | 22877 ft | 491 kts | 144° |
| 2026-04-25 10:48 | -1.96280 | 106.00348 | 22881 ft | 491 kts | 144° |
| 2026-04-25 10:48 | -1.99108 | 106.02264 | 22881 ft | 491 kts | 144° |
| 2026-04-25 10:48 | -2.01931 | 106.04177 | 22881 ft | 491 kts | 144° |
| 2026-04-25 10:48 | -2.04762 | 106.06085 | 22879 ft | 491 kts | 146° |
| 2026-04-25 10:49 | -2.07820 | 106.07623 | 22877 ft | 494 kts | 158° |
| 2026-04-25 10:49 | -2.11167 | 106.08407 | 22877 ft | 497 kts | 173° |
| 2026-04-25 10:49 | -2.14627 | 106.08290 | 22878 ft | 501 kts | 188° |
| 2026-04-25 10:49 | -2.17914 | 106.07288 | 22878 ft | 503 kts | 204° |
| 2026-04-25 10:50 | -2.20884 | 106.05441 | 22875 ft | 505 kts | 219° |
| 2026-04-25 10:50 | -2.23283 | 106.02881 | 22875 ft | 506 kts | 234° |
| 2026-04-25 10:50 | -2.24940 | 105.99790 | 22876 ft | 506 kts | 249° |
| 2026-04-25 10:50 | -2.26073 | 105.96457 | 22877 ft | 506 kts | 252° |
| 2026-04-25 10:51 | -2.27233 | 105.93138 | 22875 ft | 506 kts | 250° |
| 2026-04-25 10:51 | -2.28518 | 105.89862 | 22875 ft | 506 kts | 248° |
| 2026-04-25 10:51 | -2.29892 | 105.86627 | 22876 ft | 506 kts | 246° |
| 2026-04-25 10:51 | -2.31321 | 105.83417 | 22875 ft | 506 kts | 246° |
| 2026-04-25 10:52 | -2.32781 | 105.80221 | 22875 ft | 506 kts | 245° |
| 2026-04-25 10:52 | -2.34258 | 105.77032 | 22869 ft | 505 kts | 245° |
| 2026-04-25 10:52 | -2.35723 | 105.73891 | 22723 ft | 492 kts | 245° |
| 2026-04-25 10:52 | -2.37170 | 105.70802 | 22562 ft | 490 kts | 245° |
| 2026-04-25 10:53 | -2.38614 | 105.67726 | 21835 ft | 487 kts | 245° |
| 2026-04-25 10:53 | -2.40046 | 105.64677 | 21109 ft | 482 kts | 245° |
| 2026-04-25 10:53 | -2.41465 | 105.61660 | 20461 ft | 476 kts | 245° |
| 2026-04-25 10:53 | -2.42862 | 105.58689 | 19812 ft | 470 kts | 245° |
| 2026-04-25 10:54 | -2.44245 | 105.55748 | 19100 ft | 466 kts | 245° |
| 2026-04-25 10:54 | -2.45157 | 105.53810 | 18639 ft | 463 kts | 245° |
| 2026-04-25 10:54 | -2.46975 | 105.49946 | 17890 ft | 450 kts | 245° |
| 2026-04-25 10:54 | -2.48282 | 105.47166 | 17220 ft | 435 kts | 245° |
| 2026-04-25 10:55 | -2.49550 | 105.44470 | 16483 ft | 423 kts | 245° |
| 2026-04-25 10:55 | -2.50788 | 105.41836 | 15779 ft | 413 kts | 245° |
| 2026-04-25 10:55 | -2.52050 | 105.39341 | 15085 ft | 403 kts | 238° |
| 2026-04-25 10:55 | -2.53688 | 105.37097 | 14406 ft | 396 kts | 230° |
| 2026-04-25 10:56 | -2.55462 | 105.35004 | 13727 ft | 393 kts | 228° |
| 2026-04-25 10:56 | -2.57244 | 105.32951 | 12926 ft | 390 kts | 228° |
| 2026-04-25 10:56 | -2.59015 | 105.30915 | 12144 ft | 386 kts | 228° |
| 2026-04-25 10:56 | -2.60762 | 105.28901 | 11380 ft | 381 kts | 228° |
| 2026-04-25 10:57 | -2.62488 | 105.26907 | 10632 ft | 376 kts | 228° |
| 2026-04-25 10:57 | -2.64185 | 105.24942 | 9930 ft | 369 kts | 228° |
| 2026-04-25 10:57 | -2.65834 | 105.23033 | 9430 ft | 355 kts | 228° |
| 2026-04-25 10:57 | -2.67412 | 105.21204 | 9092 ft | 338 kts | 228° |
| 2026-04-25 10:58 | -2.68932 | 105.19442 | 8981 ft | 334 kts | 228° |
| 2026-04-25 10:58 | -2.70445 | 105.17689 | 8765 ft | 329 kts | 228° |
| 2026-04-25 10:58 | -2.71909 | 105.15995 | 8562 ft | 313 kts | 227° |
| 2026-04-25 10:58 | -2.73358 | 105.14422 | 8135 ft | 304 kts | 225° |
| 2026-04-25 10:59 | -2.74819 | 105.12902 | 7618 ft | 301 kts | 224° |
| 2026-04-25 10:59 | -2.76266 | 105.11408 | 7194 ft | 298 kts | 224° |
| 2026-04-25 10:59 | -2.77709 | 105.09918 | 6802 ft | 297 kts | 224° |
| 2026-04-25 10:59 | -2.79143 | 105.08437 | 6411 ft | 296 kts | 224° |
| 2026-04-25 11:00 | -2.80571 | 105.06961 | 6004 ft | 294 kts | 224° |
| 2026-04-25 11:00 | -2.81985 | 105.05493 | 5712 ft | 292 kts | 224° |
| 2026-04-25 11:00 | -2.83389 | 105.04034 | 5453 ft | 291 kts | 224° |
| 2026-04-25 11:00 | -2.84791 | 105.02577 | 5188 ft | 291 kts | 224° |
| 2026-04-25 11:01 | -2.86191 | 105.01121 | 4897 ft | 289 kts | 224° |
| 2026-04-25 11:01 | -2.87582 | 104.99675 | 4638 ft | 287 kts | 224° |
| 2026-04-25 11:01 | -2.88959 | 104.98244 | 4349 ft | 284 kts | 225° |
| 2026-04-25 11:01 | -2.90331 | 104.96831 | 4089 ft | 281 kts | 222° |
| 2026-04-25 11:02 | -2.91867 | 104.95725 | 3928 ft | 264 kts | 205° |
| 2026-04-25 11:02 | -2.93462 | 104.94981 | 3773 ft | 249 kts | 201° |
| 2026-04-25 11:02 | -2.95025 | 104.94324 | 3482 ft | 242 kts | 200° |
| 2026-04-25 11:02 | -2.96528 | 104.93564 | 3123 ft | 244 kts | 214° |
| 2026-04-25 11:03 | -2.97672 | 104.92336 | 2880 ft | 241 kts | 241° |
| 2026-04-25 11:03 | -2.98149 | 104.90762 | 2662 ft | 237 kts | 268° |
| 2026-04-25 11:03 | -2.97902 | 104.89155 | 2520 ft | 234 kts | 290° |
| 2026-04-25 11:03 | -2.97310 | 104.87635 | 2492 ft | 236 kts | 294° |
| 2026-04-25 11:04 | -2.96656 | 104.86134 | 2465 ft | 231 kts | 297° |
| 2026-04-25 11:04 | -2.95998 | 104.84737 | 2431 ft | 213 kts | 295° |
| 2026-04-25 11:04 | -2.95448 | 104.83426 | 2356 ft | 197 kts | 294° |
| 2026-04-25 11:04 | -2.95104 | 104.82589 | 2295 ft | 187 kts | 294° |
| 2026-04-25 11:05 | -2.94465 | 104.81065 | 2135 ft | 170 kts | 295° |
| 2026-04-25 11:05 | -2.94012 | 104.80004 | 1931 ft | 161 kts | 295° |
| 2026-04-25 11:05 | -2.93590 | 104.78997 | 1698 ft | 158 kts | 295° |
| 2026-04-25 11:05 | -2.93170 | 104.77992 | 1492 ft | 156 kts | 295° |
| 2026-04-25 11:06 | -2.92748 | 104.76983 | 1287 ft | 157 kts | 295° |
| 2026-04-25 11:06 | -2.92326 | 104.75974 | 1080 ft | 158 kts | 296° |
| 2026-04-25 11:06 | -2.91901 | 104.74959 | 891 ft | 159 kts | 294° |
| 2026-04-25 11:06 | -2.91473 | 104.73937 | 683 ft | 160 kts | 295° |
| 2026-04-25 11:07 | -2.91052 | 104.72930 | 470 ft | 153 kts | 294° |
| 2026-04-25 11:07 | -2.90659 | 104.71974 | 286 ft | 146 kts | 292° |
| 2026-04-25 11:07 | -2.90274 | 104.71044 | 95 ft | 144 kts | 294° |
| 2026-04-25 11:07 | -2.89907 | 104.70172 | 44 ft | 125 kts | 292° |
| 2026-04-25 11:08 | -2.89654 | 104.69573 | 45 ft | 64 kts | 293° |
| 2026-04-25 11:08 | -2.89519 | 104.69255 | 46 ft | 32 kts | 293° |
| 2026-04-25 11:08 | -2.89446 | 104.69235 | 48 ft | 16 kts | 23° |
| 2026-04-25 11:08 | -2.89369 | 104.69293 | 49 ft | 14 kts | 76° |
| 2026-04-25 11:09 | -2.89395 | 104.69382 | 49 ft | 14 kts | 114° |
| 2026-04-25 11:09 | -2.89434 | 104.69471 | 48 ft | 14 kts | 113° |
| 2026-04-25 11:09 | -2.89473 | 104.69566 | 47 ft | 15 kts | 113° |
| 2026-04-25 11:09 | -2.89515 | 104.69665 | 47 ft | 16 kts | 112° |
| 2026-04-25 11:10 | -2.89559 | 104.69771 | 43 ft | 17 kts | 112° |
| 2026-04-25 11:10 | -2.89591 | 104.69846 | 43 ft | 18 kts | 114° |
| 2026-04-25 11:10 | -2.89656 | 104.69999 | 45 ft | 18 kts | 113° |
| 2026-04-25 11:10 | -2.89706 | 104.70116 | 42 ft | 18 kts | 113° |
| 2026-04-25 11:11 | -2.89711 | 104.70214 | 42 ft | 14 kts | 47° |
| 2026-04-25 11:11 | -2.89646 | 104.70277 | 43 ft | 11 kts | 67° |
| 2026-04-25 11:11 | -2.89586 | 104.70309 | 42 ft | 9 kts | 21° |
| 2026-04-25 11:11 | -2.89563 | 104.70317 | 43 ft | 0 kts | 21° |